チューク諸島 の空港の天気 - METARとTAF

チューク国際空港 ( PTKK / TKK ) - ミクロネシア連邦 チューク諸島
飛行場実況気象(Metar)
観測時間05/27 12:52 +10 (05/27 02:52 UTC)
風向・風速北 3m/s
視程10km以上
天気現象
全天の4割程度の雲 雲底高度 430m
全天の8割程度の雲 雲底高度 3660m
全天を覆う雲 雲底高度 8530m
気温29.3℃
湿度84%
気圧1012.7hPa
METARPTKK 270252Z VRB06KT 15SM SCT014CB BKN120 OVC280 29/26 A2990 RMK CB ALQDS MOV SW SLP127 60022 8/328 T02930263 57014
過去の天気等 Google飛行場航空写真 Wunderground天気予報

過去48時間のMETAR

飛行場予報(TAF)
発表時間: 5/27 09:27 +10 (5/26 23:27 UTC)
予報対象時間: 27日10時 +10 ~ 28日10時 +10
風向・風速東北東 5m/s
視程10km以上
天気現象周辺でしゅう雨
全天の4割程度の雲 雲底高度 490m
全天の4割程度の雲 雲底高度 3660m
PTKK 262327Z 2700/2724 07010KT P6SM VCSH SCT016 SCT120